createdAt,value
2019-01-20T00:01:26.263Z,23.40
2019-01-20T00:03:56.403Z,21.95
2019-01-20T00:06:26.442Z,26.25
2019-01-20T00:08:56.461Z,28.75
2019-01-20T00:11:26.500Z,24.20
2019-01-20T00:13:56.787Z,23.57
2019-01-20T00:16:26.849Z,21.35
2019-01-20T00:18:56.891Z,28.95
2019-01-20T00:21:27.641Z,25.27
2019-01-20T00:23:58.048Z,27.05
2019-01-20T00:26:28.321Z,26.85
2019-01-20T00:28:58.771Z,24.07
2019-01-20T00:31:28.915Z,27.32
2019-01-20T00:33:59.334Z,24.50
2019-01-20T00:36:29.876Z,28.77
2019-01-20T00:39:01.075Z,24.87
2019-01-20T00:41:32.352Z,26.27
2019-01-20T00:44:02.440Z,28.38
2019-01-20T00:46:32.473Z,26.75
2019-01-20T00:49:02.472Z,26.60
2019-01-20T00:51:32.998Z,27.07
2019-01-20T00:54:03.197Z,26.85
2019-01-20T00:56:33.347Z,28.60
2019-01-20T00:59:03.378Z,24.05
2019-01-20T01:01:33.506Z,31.07
2019-01-20T01:04:15.142Z,31.70
2019-01-20T01:06:45.255Z,29.05
2019-01-20T01:09:16.465Z,27.37
2019-01-20T01:11:46.508Z,26.48
2019-01-20T01:14:16.589Z,28.75
2019-01-20T01:16:47.033Z,27.70
2019-01-20T01:19:18.996Z,29.80
2019-01-20T01:21:49.038Z,28.23
2019-01-20T01:24:19.051Z,28.40
2019-01-20T01:26:49.171Z,29.75
2019-01-20T01:29:19.938Z,27.25
2019-01-20T01:31:50.040Z,26.80
2019-01-20T01:34:20.203Z,26.95
2019-01-20T01:36:50.248Z,23.32
2019-01-20T01:39:20.281Z,28.50
2019-01-20T01:41:50.313Z,26.95
2019-01-20T01:44:20.350Z,31.40
2019-01-20T01:46:50.368Z,30.27
2019-01-20T01:49:20.399Z,29.67
2019-01-20T01:51:50.790Z,25.88
2019-01-20T01:54:20.914Z,31.57
2019-01-20T01:56:51.074Z,29.20
2019-01-20T01:59:21.648Z,28.85
2019-01-20T02:01:52.774Z,27.70
2019-01-20T02:04:22.796Z,28.87
2019-01-20T02:06:52.847Z,26.55
2019-01-20T02:09:22.902Z,24.60
2019-01-20T02:11:53.658Z,32.35
2019-01-20T02:14:23.680Z,30.72
2019-01-20T02:16:53.692Z,28.38
2019-01-20T02:19:23.813Z,29.30
2019-01-20T02:21:55.010Z,28.52
2019-01-20T02:24:25.012Z,22.35
2019-01-20T02:26:55.064Z,23.73
2019-01-20T02:29:25.098Z,24.45
2019-01-20T02:31:55.506Z,21.17
2019-01-20T02:34:25.539Z,22.60
2019-01-20T02:36:55.946Z,18.80
2019-01-20T02:39:26.716Z,20.05
2019-01-20T02:41:57.125Z,18.20
2019-01-20T02:44:27.215Z,23.83
2019-01-20T02:46:57.230Z,23.90
2019-01-20T02:49:27.280Z,18.50
2019-01-20T02:51:57.710Z,18.75
2019-01-20T02:54:28.168Z,16.95
2019-01-20T02:56:58.858Z,21.50
2019-01-20T02:59:28.890Z,17.40
2019-01-20T03:01:58.917Z,15.30
2019-01-20T03:04:29.368Z,20.27
2019-01-20T03:06:59.386Z,17.40
2019-01-20T03:09:29.410Z,18.00
2019-01-20T03:12:03.562Z,17.67
2019-01-20T03:14:31.233Z,16.62
2019-01-20T03:17:01.572Z,17.10
2019-01-20T03:19:31.660Z,19.05
2019-01-20T03:22:01.716Z,15.90
2019-01-20T03:24:31.738Z,15.08
2019-01-20T03:27:01.776Z,15.40
2019-01-20T03:29:32.382Z,18.00
2019-01-20T03:32:02.539Z,15.78
2019-01-20T03:34:32.682Z,14.25
2019-01-20T03:37:03.143Z,19.62
2019-01-20T03:39:33.247Z,16.05
2019-01-20T03:42:03.304Z,17.20
2019-01-20T03:44:33.326Z,18.50
2019-01-20T03:47:03.447Z,14.58
2019-01-20T03:49:33.480Z,15.48
2019-01-20T03:52:03.602Z,16.23
2019-01-20T03:54:33.956Z,14.05
2019-01-20T03:57:04.792Z,17.67
2019-01-20T03:59:34.814Z,14.03
2019-01-20T04:02:05.060Z,16.60
2019-01-20T04:04:35.109Z,15.45
2019-01-20T04:07:05.690Z,13.60
2019-01-20T04:09:35.801Z,14.63
2019-01-20T04:12:05.847Z,11.78
2019-01-20T04:14:35.935Z,14.60
2019-01-20T04:17:06.206Z,15.68
2019-01-20T04:19:36.250Z,15.95
2019-01-20T04:22:06.359Z,15.80
2019-01-20T04:24:36.473Z,14.47
2019-01-20T04:27:06.590Z,14.13
2019-01-20T04:29:36.744Z,16.67
2019-01-20T04:32:06.782Z,16.12
2019-01-20T04:34:36.881Z,13.98
2019-01-20T04:37:06.895Z,13.43
2019-01-20T04:39:36.916Z,14.40
2019-01-20T04:42:06.928Z,10.88
2019-01-20T04:44:36.960Z,18.80
2019-01-20T04:47:06.985Z,14.53
2019-01-20T04:49:37.078Z,12.65
2019-01-20T04:52:07.072Z,12.88
2019-01-20T04:54:37.424Z,15.38
2019-01-20T04:57:07.460Z,13.90
2019-01-20T04:59:37.497Z,16.05
2019-01-20T05:02:07.521Z,14.68
2019-01-20T05:04:37.571Z,20.32
2019-01-20T05:07:07.643Z,15.75
2019-01-20T05:09:38.659Z,16.45
2019-01-20T05:12:09.059Z,14.85
2019-01-20T05:14:39.614Z,15.83
2019-01-20T05:17:10.042Z,15.85
2019-01-20T05:19:40.142Z,11.70
2019-01-20T05:22:10.246Z,15.95
2019-01-20T05:24:40.359Z,18.98
2019-01-20T05:27:10.447Z,17.42
2019-01-20T05:29:40.511Z,16.70
2019-01-20T05:32:10.560Z,18.05
2019-01-20T05:34:40.615Z,22.00
2019-01-20T05:37:10.656Z,16.02
2019-01-20T05:39:41.123Z,15.58
2019-01-20T05:42:11.159Z,18.40
2019-01-20T05:44:41.258Z,16.90
2019-01-20T05:47:11.332Z,20.27
2019-01-20T05:49:41.784Z,14.85
2019-01-20T05:52:11.895Z,14.25
2019-01-20T05:54:42.327Z,20.80
2019-01-20T05:57:12.387Z,16.95
2019-01-20T05:59:42.865Z,17.23
2019-01-20T06:02:12.996Z,18.12
2019-01-20T06:04:43.167Z,16.48
2019-01-20T06:07:13.213Z,17.40
2019-01-20T06:09:43.669Z,16.62
2019-01-20T06:12:13.721Z,16.25
2019-01-20T06:14:44.107Z,14.60
2019-01-20T06:17:14.180Z,14.13
2019-01-20T06:19:44.204Z,22.05
2019-01-20T06:22:14.267Z,16.65
2019-01-20T06:24:44.308Z,15.08
2019-01-20T06:27:14.362Z,17.35
2019-01-20T06:29:44.387Z,15.45
2019-01-20T06:32:14.487Z,18.40
2019-01-20T06:34:44.501Z,17.00
2019-01-20T06:37:14.540Z,16.23
2019-01-20T06:39:44.903Z,16.10
2019-01-20T06:42:15.023Z,14.73
2019-01-20T06:44:45.046Z,18.55
2019-01-20T06:47:15.175Z,17.55
2019-01-20T06:49:45.547Z,17.12
2019-01-20T06:52:16.970Z,23.05
2019-01-20T06:54:47.493Z,17.48
2019-01-20T06:57:17.558Z,21.15
2019-01-20T06:59:47.644Z,19.48
2019-01-20T07:02:17.686Z,20.85
2019-01-20T07:04:47.735Z,20.55
2019-01-20T07:07:17.855Z,21.73
2019-01-20T07:09:47.919Z,19.37
2019-01-20T07:12:18.263Z,18.30
2019-01-20T07:14:49.118Z,20.35
2019-01-20T07:20:36.092Z,17.15
2019-01-20T07:23:06.141Z,25.12
2019-01-20T07:25:36.486Z,19.12
2019-01-20T07:28:06.548Z,18.12
2019-01-20T07:30:36.715Z,18.70
2019-01-20T07:33:07.151Z,19.45
2019-01-20T07:35:37.159Z,19.35
2019-01-20T07:38:07.349Z,16.52
2019-01-20T07:40:37.445Z,19.55
2019-01-20T07:43:07.833Z,20.15
2019-01-20T07:45:38.320Z,20.85
2019-01-20T07:48:08.445Z,19.57
2019-01-20T07:50:38.803Z,18.65
2019-01-20T07:53:08.843Z,20.62
2019-01-20T07:55:38.884Z,20.00
2019-01-20T07:58:08.953Z,23.27
2019-01-20T08:00:38.977Z,21.82
2019-01-20T08:03:09.022Z,22.48
2019-01-20T08:05:39.093Z,17.82
2019-01-20T08:08:09.638Z,20.68
2019-01-20T08:10:40.039Z,21.52
2019-01-20T08:13:10.082Z,19.98
2019-01-20T08:15:40.139Z,18.40
2019-01-20T08:18:10.598Z,22.15
2019-01-20T08:20:40.655Z,20.80
2019-01-20T08:23:10.680Z,19.50
2019-01-20T08:25:40.758Z,19.12
2019-01-20T08:28:10.816Z,20.20
2019-01-20T08:30:40.880Z,20.68
2019-01-20T08:33:11.318Z,21.23
2019-01-20T08:35:41.750Z,18.37
2019-01-20T08:38:11.837Z,21.23
2019-01-20T08:40:41.976Z,18.30
2019-01-20T08:43:12.076Z,19.57
2019-01-20T08:46:10.832Z,16.67
2019-01-20T08:48:41.032Z,18.35
2019-01-20T08:51:12.778Z,20.23
2019-01-20T08:53:42.796Z,25.30
2019-01-20T08:56:12.895Z,22.67
2019-01-20T08:58:42.923Z,25.85
2019-01-20T09:01:13.439Z,19.40
2019-01-20T09:03:44.907Z,23.32
2019-01-20T09:06:14.974Z,20.85
2019-01-20T09:08:45.012Z,20.17
2019-01-20T09:11:15.541Z,24.30
2019-01-20T09:13:46.012Z,24.05
2019-01-20T09:16:16.085Z,20.20
2019-01-20T09:18:46.132Z,19.70
2019-01-20T09:21:16.200Z,21.40
2019-01-20T09:23:46.568Z,21.20
2019-01-20T09:26:16.618Z,26.82
2019-01-20T09:28:46.682Z,20.55
2019-01-20T09:31:17.041Z,19.02
2019-01-20T09:33:47.259Z,22.98
2019-01-20T09:36:17.331Z,22.67
2019-01-20T09:38:47.884Z,22.65
2019-01-20T09:41:17.984Z,26.62
2019-01-20T09:43:48.129Z,22.70
2019-01-20T09:46:18.179Z,26.00
2019-01-20T09:48:48.292Z,23.47
2019-01-20T09:51:18.344Z,22.32
2019-01-20T09:53:48.545Z,25.85
2019-01-20T09:56:18.620Z,24.25
2019-01-20T09:58:49.123Z,23.85
2019-01-20T10:01:19.195Z,26.50
2019-01-20T10:03:49.617Z,24.23
2019-01-20T10:06:19.679Z,22.75
2019-01-20T10:08:49.722Z,26.97
2019-01-20T10:11:19.860Z,22.25
2019-01-20T10:13:54.756Z,27.98
2019-01-20T10:16:21.715Z,28.85
2019-01-20T10:18:52.054Z,30.08
2019-01-20T10:21:22.480Z,23.75
2019-01-20T10:23:52.899Z,27.58
2019-01-20T10:26:23.359Z,24.87
2019-01-20T10:28:53.435Z,28.67
2019-01-20T10:31:23.546Z,26.17
2019-01-20T10:33:53.839Z,28.80
2019-01-20T10:36:24.037Z,27.30
2019-01-20T10:38:54.079Z,26.68
2019-01-20T10:41:24.220Z,28.77
2019-01-20T10:43:54.577Z,24.47
2019-01-20T10:46:24.612Z,24.02
2019-01-20T10:48:54.641Z,28.73
2019-01-20T10:51:24.741Z,24.30
2019-01-20T10:53:54.823Z,24.70
2019-01-20T10:56:24.830Z,22.90
2019-01-20T10:58:55.280Z,28.05
2019-01-20T11:01:25.421Z,24.27
2019-01-20T11:03:55.478Z,23.07
2019-01-20T11:06:25.917Z,28.07
2019-01-20T11:08:55.984Z,27.77
2019-01-20T11:11:26.086Z,25.80
2019-01-20T11:13:56.138Z,24.10
2019-01-20T11:16:26.178Z,25.02
2019-01-20T11:18:56.281Z,25.90
2019-01-20T11:21:26.427Z,26.95
2019-01-20T11:23:57.075Z,33.65
2019-01-20T11:26:27.607Z,23.65
2019-01-20T11:28:57.664Z,25.50
2019-01-20T11:31:27.682Z,27.82
2019-01-20T11:33:57.795Z,29.87
2019-01-20T11:36:27.993Z,26.90
2019-01-20T11:38:58.046Z,29.45
2019-01-20T11:41:28.526Z,27.00
2019-01-20T11:43:58.621Z,28.73
2019-01-20T11:46:28.711Z,25.72
2019-01-20T11:48:59.095Z,26.48
2019-01-20T11:51:29.125Z,26.50
2019-01-20T11:53:59.329Z,27.17
2019-01-20T11:56:30.665Z,30.12
2019-01-20T11:59:04.255Z,33.78
2019-01-20T12:05:13.110Z,27.85
2019-01-20T12:07:43.145Z,25.15
2019-01-20T12:10:14.118Z,27.65
2019-01-20T12:13:28.262Z,26.27
2019-01-20T12:15:58.830Z,26.20
2019-01-20T12:18:28.861Z,23.35
2019-01-20T12:21:00.440Z,24.07
2019-01-20T12:23:30.483Z,26.93
2019-01-20T12:26:00.609Z,27.20
2019-01-20T12:28:31.111Z,26.33
2019-01-20T12:31:01.192Z,26.12
2019-01-20T12:33:31.535Z,22.65
2019-01-20T12:36:02.433Z,20.23
2019-01-20T12:38:32.452Z,24.07
2019-01-20T12:41:02.591Z,23.87
2019-01-20T12:43:33.001Z,23.22
2019-01-20T12:46:12.285Z,20.60
2019-01-20T12:48:42.697Z,24.47
2019-01-20T12:52:05.933Z,20.72
2019-01-20T12:54:36.343Z,29.00
2019-01-20T12:57:06.394Z,27.02
2019-01-20T12:59:36.491Z,26.62
2019-01-20T13:02:06.566Z,28.02
2019-01-20T13:04:36.659Z,25.97
2019-01-20T13:07:06.668Z,24.85
2019-01-20T13:09:36.764Z,26.80
2019-01-20T13:17:01.514Z,29.37
2019-01-20T13:22:51.844Z,27.17
2019-01-20T13:25:24.034Z,24.05
2019-01-20T13:27:56.053Z,27.82
2019-01-20T13:30:27.539Z,27.07
2019-01-20T13:32:57.932Z,22.90
2019-01-20T13:35:31.785Z,27.90
2019-01-20T13:38:07.216Z,26.73
2019-01-20T13:41:01.065Z,26.77
2019-01-20T13:43:33.676Z,31.02
2019-01-20T13:46:04.185Z,28.38
2019-01-20T13:48:34.384Z,25.23
2019-01-20T13:51:04.819Z,26.93
2019-01-20T13:53:34.862Z,23.32
2019-01-20T13:56:05.149Z,25.35
2019-01-20T13:58:35.227Z,24.90
2019-01-20T14:01:05.552Z,24.67
2019-01-20T14:03:35.611Z,24.70
2019-01-20T14:06:06.098Z,23.80
2019-01-20T14:08:36.276Z,24.32
2019-01-20T14:11:06.689Z,29.00
2019-01-20T14:13:36.832Z,24.43
2019-01-20T14:16:07.299Z,24.07
2019-01-20T14:18:37.460Z,22.42
2019-01-20T14:21:07.509Z,24.32
2019-01-20T14:23:37.622Z,23.65
2019-01-20T14:26:07.802Z,19.40
2019-01-20T14:28:38.340Z,23.67
2019-01-20T14:31:16.863Z,22.35
2019-01-20T14:33:46.888Z,20.88
2019-01-20T14:40:21.527Z,24.35
2019-01-20T14:42:51.629Z,23.38
2019-01-20T14:45:22.060Z,23.07
2019-01-20T14:47:52.279Z,21.23
2019-01-20T14:50:24.050Z,23.87
2019-01-20T14:52:54.105Z,23.22
2019-01-20T14:55:26.430Z,23.30
2019-01-20T14:57:56.440Z,23.07
2019-01-20T15:00:32.565Z,24.20
2019-01-20T15:03:02.657Z,22.70
2019-01-20T15:05:32.675Z,27.17
2019-01-20T15:08:03.204Z,23.45
2019-01-20T15:10:33.458Z,20.77
2019-01-20T15:13:03.574Z,23.77
2019-01-20T15:15:37.181Z,21.40
2019-01-20T15:18:07.840Z,20.30
2019-01-20T15:20:37.990Z,21.23
2019-01-20T15:23:10.045Z,21.42
2019-01-20T15:25:40.329Z,21.93
2019-01-20T15:28:11.250Z,24.02
2019-01-20T15:30:41.273Z,25.72
2019-01-20T15:33:11.592Z,20.20
2019-01-20T15:35:41.614Z,27.32
2019-01-20T15:38:12.435Z,25.90
2019-01-20T15:40:42.540Z,24.77
2019-01-20T15:43:12.548Z,25.95
2019-01-20T15:45:42.642Z,22.27
2019-01-20T15:48:13.740Z,28.05
2019-01-20T15:50:44.243Z,23.32
2019-01-20T15:53:14.630Z,24.23
2019-01-20T15:55:44.673Z,23.27
2019-01-20T15:58:15.032Z,22.00
2019-01-20T16:00:45.046Z,21.93
2019-01-20T16:03:15.038Z,24.40
2019-01-20T16:05:45.036Z,23.90
2019-01-20T16:08:15.086Z,29.02
2019-01-20T16:10:45.448Z,23.38
2019-01-20T16:13:15.458Z,21.00
2019-01-20T16:15:45.530Z,26.77
2019-01-20T16:18:15.720Z,24.30
2019-01-20T16:20:47.966Z,23.12
2019-01-20T16:23:18.995Z,26.02
2019-01-20T16:25:49.376Z,25.45
2019-01-20T16:32:07.769Z,26.85
2019-01-20T16:34:37.804Z,23.00
2019-01-20T16:37:08.271Z,24.35
2019-01-20T16:39:38.755Z,25.97
2019-01-20T16:42:08.812Z,22.80
2019-01-20T16:44:38.828Z,23.55
2019-01-20T16:47:08.961Z,23.45
2019-01-20T16:49:39.031Z,26.50
2019-01-20T16:52:10.759Z,23.55
2019-01-20T16:54:40.903Z,26.33
2019-01-20T16:57:11.740Z,27.85
2019-01-20T16:59:41.822Z,29.05
2019-01-20T17:02:12.434Z,28.42
2019-01-20T17:04:43.371Z,26.33
2019-01-20T17:07:13.495Z,28.67
2019-01-20T17:09:43.891Z,25.65
2019-01-20T17:12:15.056Z,29.63
2019-01-20T17:14:45.471Z,33.05
2019-01-20T17:17:16.981Z,27.30
2019-01-20T17:19:47.031Z,31.55
2019-01-20T17:22:17.044Z,26.77
2019-01-20T17:24:47.385Z,26.65
2019-01-20T17:27:17.375Z,25.20
2019-01-20T17:29:47.397Z,28.32
2019-01-20T17:32:18.107Z,29.00
2019-01-20T17:34:48.477Z,29.42
2019-01-20T17:37:20.645Z,26.60
2019-01-20T17:39:51.793Z,30.72
2019-01-20T17:42:21.783Z,28.75
2019-01-20T17:44:52.631Z,29.65
2019-01-20T17:47:22.627Z,29.23
2019-01-20T17:49:59.840Z,32.83
2019-01-20T17:52:31.821Z,30.35
2019-01-20T17:55:01.925Z,30.17
2019-01-20T17:57:34.103Z,33.00
2019-01-20T18:00:07.119Z,39.20
2019-01-20T18:02:37.142Z,33.10
2019-01-20T18:05:09.144Z,37.20
2019-01-20T18:07:41.197Z,32.25
2019-01-20T18:10:12.715Z,31.30
2019-01-20T18:12:42.868Z,40.25
2019-01-20T18:15:34.559Z,38.25
2019-01-20T18:18:05.092Z,38.08
2019-01-20T18:20:36.422Z,39.58
2019-01-20T18:23:06.815Z,39.03
2019-01-20T18:25:36.813Z,36.58
2019-01-20T18:28:07.967Z,38.73
2019-01-20T18:30:38.050Z,39.78
2019-01-20T18:33:08.069Z,37.45
2019-01-20T18:35:38.077Z,38.58
2019-01-20T18:38:08.746Z,37.83
2019-01-20T18:40:39.375Z,40.50
2019-01-20T18:43:09.370Z,41.65
2019-01-20T18:45:40.528Z,42.03
2019-01-20T18:48:10.879Z,45.50
2019-01-20T18:50:40.878Z,40.10
2019-01-20T18:53:10.985Z,42.13
2019-01-20T18:55:41.519Z,37.33
2019-01-20T18:58:11.547Z,38.75
2019-01-20T19:00:47.112Z,39.48
2019-01-20T19:03:17.160Z,41.60
2019-01-20T19:05:47.218Z,40.38
2019-01-20T19:08:17.954Z,39.00
2019-01-20T19:10:49.040Z,38.70
2019-01-20T19:13:19.899Z,39.88
2019-01-20T19:15:50.272Z,38.40
2019-01-20T19:18:23.281Z,34.45
2019-01-20T19:20:53.656Z,37.25
2019-01-20T19:23:23.686Z,41.70
2019-01-20T19:25:53.686Z,43.92
2019-01-20T19:28:23.716Z,36.95
2019-01-20T19:30:54.144Z,42.35
2019-01-20T19:33:24.150Z,38.67
2019-01-20T19:35:54.171Z,38.45
2019-01-20T19:38:24.180Z,38.28
2019-01-20T19:40:54.232Z,39.83
2019-01-20T19:43:24.615Z,41.88
2019-01-20T19:45:54.648Z,41.23
2019-01-20T19:48:24.978Z,42.27
2019-01-20T19:50:54.993Z,43.85
2019-01-20T19:53:25.071Z,42.67
2019-01-20T19:55:55.526Z,43.50
2019-01-20T19:59:07.738Z,39.15
2019-01-20T20:01:37.784Z,44.53
2019-01-20T20:04:07.948Z,39.42
2019-01-20T20:06:40.125Z,38.33
2019-01-20T20:09:13.229Z,44.60
2019-01-20T20:11:43.246Z,38.78
2019-01-20T20:14:13.354Z,37.00
2019-01-20T20:16:43.807Z,44.03
2019-01-20T20:19:13.971Z,40.95
2019-01-20T20:21:44.347Z,41.18
2019-01-20T20:24:25.426Z,47.38
2019-01-20T20:26:53.953Z,38.53
2019-01-20T20:29:24.302Z,44.98
2019-01-20T20:31:54.326Z,38.38
2019-01-20T20:34:24.789Z,42.67
2019-01-20T20:36:55.184Z,43.28
2019-01-20T20:39:25.194Z,43.45
2019-01-20T20:41:55.654Z,38.70
2019-01-20T20:44:25.668Z,40.70
2019-01-20T20:46:55.694Z,47.00
2019-01-20T20:49:26.000Z,39.83
2019-01-20T20:51:55.994Z,46.08
2019-01-20T20:54:26.100Z,41.58
2019-01-20T20:56:56.094Z,39.73
2019-01-20T20:59:26.126Z,44.15
2019-01-20T21:01:56.118Z,43.13
2019-01-20T21:04:26.611Z,40.92
2019-01-20T21:06:58.478Z,41.35
2019-01-20T21:09:28.508Z,44.05
2019-01-20T21:11:58.515Z,40.70
2019-01-20T21:14:28.520Z,40.15
2019-01-20T21:16:58.595Z,43.65
2019-01-20T21:19:28.622Z,40.03
2019-01-20T21:21:58.629Z,40.92
2019-01-20T21:24:28.639Z,44.35
2019-01-20T21:26:58.657Z,42.50
2019-01-20T21:29:28.661Z,46.95
2019-01-20T21:31:58.654Z,37.95
2019-01-20T21:34:29.038Z,43.30
2019-01-20T21:36:59.048Z,42.95
2019-01-20T21:39:29.512Z,46.55
2019-01-20T21:41:59.566Z,45.05
2019-01-20T21:44:29.623Z,45.70
2019-01-20T21:46:59.610Z,39.08
2019-01-20T21:49:29.624Z,43.23
2019-01-20T21:51:59.642Z,47.65
2019-01-20T21:54:29.726Z,45.63
2019-01-20T21:56:59.726Z,38.08
2019-01-20T21:59:29.723Z,43.68
2019-01-20T22:01:59.788Z,42.13
2019-01-20T22:04:29.804Z,46.37
2019-01-20T22:06:59.817Z,45.15
2019-01-20T22:09:30.600Z,43.80
2019-01-20T22:12:00.603Z,44.50
2019-01-20T22:14:30.610Z,45.33
2019-01-20T22:17:00.594Z,44.55
2019-01-20T22:19:30.997Z,39.03
2019-01-20T22:22:01.047Z,44.93
2019-01-20T22:24:31.033Z,47.58
2019-01-20T22:27:01.041Z,42.85
2019-01-20T22:29:31.777Z,44.08
2019-01-20T22:32:02.239Z,46.25
2019-01-20T22:34:32.698Z,44.40
2019-01-20T22:37:02.780Z,40.92
2019-01-20T22:39:32.761Z,44.98
2019-01-20T22:42:02.769Z,48.55
2019-01-20T22:44:37.156Z,45.88
2019-01-20T22:47:07.260Z,40.52
2019-01-20T22:49:37.624Z,46.92
2019-01-20T22:52:07.651Z,43.02
2019-01-20T22:54:37.628Z,46.05
2019-01-20T22:57:07.645Z,45.78
2019-01-20T22:59:38.323Z,46.13
2019-01-20T23:02:08.334Z,42.20
2019-01-20T23:04:38.323Z,44.73
2019-01-20T23:07:08.367Z,47.05
2019-01-20T23:09:38.412Z,47.55
2019-01-20T23:12:14.653Z,46.23
2019-01-20T23:14:44.732Z,42.30
2019-01-20T23:17:14.743Z,42.90
2019-01-20T23:19:45.111Z,44.15
2019-01-20T23:22:15.138Z,43.55
2019-01-20T23:24:45.791Z,43.68
2019-01-20T23:27:16.287Z,40.10
2019-01-20T23:29:46.278Z,44.00
2019-01-20T23:32:16.327Z,40.78
2019-01-20T23:34:46.380Z,45.30
2019-01-20T23:37:16.398Z,43.00
2019-01-20T23:39:46.567Z,43.48
2019-01-20T23:42:16.599Z,41.65
2019-01-20T23:44:46.601Z,47.27
2019-01-20T23:47:16.654Z,42.00
2019-01-20T23:49:46.651Z,41.83
2019-01-20T23:52:16.721Z,40.35
2019-01-20T23:58:10.432Z,41.55
